CheckWX is a tool to help pilots better visualize weather data.  It is not intended as a substitute for an official pre-flight weather briefing.

15:30:36 UTC

KHIB METAR
Range Regional Airport
Hibbing, Minnesota, USA
Current

7 mins ago

KHIB 231524Z AUTO 34010KT 9SM OVC013 09/08 A2987 RMK AO2 T00940078
Observed
May-23 @ 15:24 UTC
Wind
  • 340° at 10 KTS
Visibility
9 SM
Flight Rules
MVFR
Cloud Levels
  • Overcast at 1,300' AGL
Temperature
C / 48°F
Dewpoint
C / 46°F
Humidity
94%
Altimeter
29.87" Hg
Pressure
1011.52 hPa
Previous

38 mins ago

KHIB 231453Z AUTO 31010KT 10SM OVC008 08/07 A2986 RMK AO2 CIG 006V011 SLP123 T00830072 51033
Observed
May-23 @ 14:53 UTC
Wind
  • 310° at 10 KTS
Visibility
10 SM
Flight Rules
IFR
Cloud Levels
  • Overcast at 800' AGL
Temperature
C / 46°F
Dewpoint
C / 45°F
Humidity
93%
Altimeter
29.86" Hg
Pressure
1011.22 hPa
Previous

2 hours ago

KHIB 231353Z AUTO 31013KT 10SM OVC009 08/07 A2984 RMK AO2 CIG 006V013 SLP116 T00830072
Observed
May-23 @ 13:53 UTC
Wind
  • 310° at 13 KTS
Visibility
10 SM
Flight Rules
IFR
Cloud Levels
  • Overcast at 900' AGL
Temperature
C / 46°F
Dewpoint
C / 45°F
Humidity
93%
Altimeter
29.84" Hg
Pressure
1010.52 hPa